Time;durP1;ratioP1;P1;durP2;ratioP2;P2;SDS_P1;SDS_P2;PMS_P1;PMS_P2;Temp;Humidity;BMP_temperature;BMP_pressure;BME280_temperature;BME280_humidity;BME280_pressure;Samples;Min_cycle;Max_cycle;Signal;HPM_P1;HPM_P2
2024/01/25 00:00:16;;;;;;;42.60;7.80;;;8.90;1.00;;;;;;5054042;28;20179;-80
2024/01/25 00:02:42;;;;;;;35.70;7.50;;;8.80;1.00;;;;;;5056813;28;20655;-81
2024/01/25 00:05:08;;;;;;;42.70;8.17;;;8.90;1.00;;;;;;5035997;28;20168;-80
2024/01/25 00:07:33;;;;;;;43.63;9.03;;;8.90;1.00;;;;;;5037153;28;20176;-79
2024/01/25 00:09:59;;;;;;;40.50;8.20;;;8.90;1.00;;;;;;5052120;28;20546;-79
2024/01/25 00:12:24;;;;;;;38.70;7.47;;;8.90;1.00;;;;;;5057260;28;20195;-79
2024/01/25 00:14:52;;;;;;;55.80;8.87;;;8.90;1.00;;;;;;5055928;28;20172;-79
2024/01/25 00:17:17;;;;;;;33.80;7.13;;;8.90;1.00;;;;;;5057161;28;20287;-80
2024/01/25 00:19:43;;;;;;;46.13;8.73;;;8.90;1.00;;;;;;5043437;28;20208;-80
2024/01/25 00:22:09;;;;;;;36.33;7.27;;;8.90;1.00;;;;;;5047616;28;20207;-79
2024/01/25 00:24:34;;;;;;;38.20;7.40;;;8.90;1.00;;;;;;5057327;28;20233;-80
2024/01/25 00:27:00;;;;;;;39.90;7.33;;;8.90;1.00;;;;;;5050444;28;20575;-81
2024/01/25 00:29:25;;;;;;;35.57;7.13;;;8.90;1.00;;;;;;5037026;28;20183;-80
2024/01/25 00:31:51;;;;;;;39.63;7.10;;;8.90;1.00;;;;;;5050900;28;20289;-80
2024/01/25 00:34:16;;;;;;;37.00;6.37;;;8.90;1.00;;;;;;5043622;28;20599;-79
2024/01/25 00:36:42;;;;;;;38.53;8.10;;;8.90;1.00;;;;;;5040011;28;20219;-81
2024/01/25 00:39:08;;;;;;;38.10;7.37;;;8.90;1.00;;;;;;5039167;28;20204;-81
2024/01/25 00:41:35;;;;;;;48.43;8.33;;;8.80;1.00;;;;;;5046384;28;20313;-81
2024/01/25 00:44:01;;;;;;;40.10;7.60;;;8.80;1.00;;;;;;5058394;28;20179;-80
2024/01/25 00:46:27;;;;;;;45.33;9.13;;;8.80;1.00;;;;;;5059537;28;20315;-81
2024/01/25 00:48:52;;;;;;;33.30;7.17;;;8.80;1.00;;;;;;5061721;28;20178;-81
2024/01/25 00:51:22;;;;;;;42.40;8.33;;;8.80;1.00;;;;;;5060345;28;20222;-80
2024/01/25 00:53:48;;;;;;;48.90;8.33;;;8.80;1.00;;;;;;5057739;28;20160;-80
2024/01/25 00:56:14;;;;;;;41.20;7.47;;;8.80;1.00;;;;;;5054386;28;20622;-79
2024/01/25 00:58:40;;;;;;;48.00;9.10;;;8.80;1.00;;;;;;5056411;28;20253;-82
2024/01/25 01:01:06;;;;;;;44.27;8.27;;;8.80;1.00;;;;;;5054299;28;20329;-80
2024/01/25 01:03:32;;;;;;;37.07;8.50;;;8.70;1.00;;;;;;5056570;28;20199;-80
2024/01/25 01:05:58;;;;;;;40.43;8.00;;;8.70;1.00;;;;;;5055081;28;20178;-80
2024/01/25 01:08:24;;;;;;;33.40;8.37;;;8.60;1.00;;;;;;5054292;28;20651;-80
2024/01/25 01:10:49;;;;;;;34.90;7.57;;;8.60;1.00;;;;;;5053002;28;20245;-80
2024/01/25 01:13:15;;;;;;;41.30;7.90;;;8.60;1.00;;;;;;5053677;28;20648;-80
2024/01/25 01:15:40;;;;;;;34.33;6.83;;;8.50;1.00;;;;;;5055314;28;20171;-80
2024/01/25 01:18:06;;;;;;;37.07;7.40;;;8.50;1.00;;;;;;5054200;28;20205;-80
2024/01/25 01:20:31;;;;;;;38.70;7.93;;;8.40;1.00;;;;;;5055418;28;20194;-80
2024/01/25 01:22:57;;;;;;;41.63;7.73;;;8.40;1.00;;;;;;5055357;28;20179;-80
2024/01/25 01:25:22;;;;;;;45.97;8.10;;;8.40;1.00;;;;;;5057060;28;20658;-80
2024/01/25 01:27:48;;;;;;;45.67;7.67;;;8.30;1.00;;;;;;5054374;28;20198;-80
2024/01/25 01:30:13;;;;;;;42.10;7.87;;;8.30;3.70;;;;;;5045181;28;20263;-79
2024/01/25 01:32:39;;;;;;;32.00;7.43;;;8.30;15.60;;;;;;5050603;28;20564;-80
2024/01/25 01:35:05;;;;;;;39.23;8.33;;;8.20;30.10;;;;;;5056209;28;20202;-80
2024/01/25 01:37:30;;;;;;;35.70;6.90;;;8.20;57.50;;;;;;5054681;28;20246;-79
2024/01/25 01:39:58;;;;;;;35.43;7.57;;;8.20;48.00;;;;;;5056497;28;20199;-80
2024/01/25 01:42:24;;;;;;;36.13;6.70;;;8.20;94.70;;;;;;5052942;28;20199;-80
2024/01/25 01:44:53;;;;;;;42.10;7.90;;;8.20;59.10;;;;;;5056229;28;20174;-80
2024/01/25 01:47:19;;;;;;;39.43;7.30;;;8.20;73.40;;;;;;5056228;28;20551;-80
2024/01/25 01:49:45;;;;;;;43.23;8.37;;;8.10;79.50;;;;;;5055790;28;20184;-80
2024/01/25 01:52:11;;;;;;;41.20;8.03;;;8.10;91.60;;;;;;5054920;28;20214;-80
2024/01/25 01:54:37;;;;;;;39.00;7.70;;;8.10;80.30;;;;;;5054248;28;20179;-81
2024/01/25 01:57:03;;;;;;;42.77;8.13;;;8.10;82.40;;;;;;5033660;28;20208;-80
2024/01/25 01:59:29;;;;;;;40.47;7.97;;;8.00;98.60;;;;;;5033587;28;20182;-79
2024/01/25 02:01:55;;;;;;;45.50;7.70;;;8.00;99.90;;;;;;5044687;28;20222;-80
2024/01/25 02:04:20;;;;;;;44.30;7.87;;;8.00;94.80;;;;;;5053420;28;20180;-80
2024/01/25 02:06:46;;;;;;;42.83;7.77;;;8.00;99.90;;;;;;5055084;28;20193;-80
2024/01/25 02:09:13;;;;;;;43.67;7.90;;;7.90;99.90;;;;;;5053175;28;20186;-80
2024/01/25 02:11:38;;;;;;;38.30;7.30;;;7.90;99.90;;;;;;5053271;28;20204;-80
2024/01/25 02:14:04;;;;;;;36.50;7.50;;;7.80;99.90;;;;;;5057018;28;20750;-80
2024/01/25 02:16:29;;;;;;;33.90;6.63;;;7.80;99.90;;;;;;5057637;28;20176;-80
2024/01/25 02:18:57;;;;;;;39.83;8.17;;;7.80;99.90;;;;;;5058165;28;20179;-80
2024/01/25 02:21:22;;;;;;;43.27;8.60;;;7.80;99.90;;;;;;5052716;28;20199;-80
2024/01/25 02:23:48;;;;;;;46.17;9.10;;;7.80;99.90;;;;;;5037187;28;20180;-80
2024/01/25 02:26:13;;;;;;;35.80;8.00;;;7.80;99.90;;;;;;5035530;28;20172;-80
2024/01/25 02:28:39;;;;;;;44.57;8.70;;;7.80;99.90;;;;;;5035620;28;20180;-80
2024/01/25 02:31:04;;;;;;;46.83;8.93;;;7.80;99.90;;;;;;5037085;28;20725;-79
2024/01/25 02:33:30;;;;;;;40.27;7.90;;;7.80;99.90;;;;;;5044539;28;20241;-80
2024/01/25 02:35:56;;;;;;;36.67;6.87;;;7.80;99.90;;;;;;5035766;28;20263;-80
2024/01/25 02:38:21;;;;;;;42.07;8.57;;;7.80;99.90;;;;;;5035853;28;20192;-79
2024/01/25 02:40:47;;;;;;;36.07;7.00;;;7.90;99.90;;;;;;5034042;28;20251;-80
2024/01/25 02:43:12;;;;;;;35.33;7.27;;;8.00;99.90;;;;;;5053611;28;20659;-80
2024/01/25 02:45:38;;;;;;;38.57;7.43;;;7.80;99.90;;;;;;5044430;28;20231;-79
2024/01/25 02:48:04;;;;;;;33.83;6.97;;;7.90;99.90;;;;;;5034800;28;20207;-79
2024/01/25 02:50:30;;;;;;;43.10;7.67;;;7.80;99.90;;;;;;5035352;28;20246;-80
2024/01/25 02:52:57;;;;;;;35.23;7.57;;;7.80;99.90;;;;;;5036965;28;20310;-80
2024/01/25 02:55:22;;;;;;;38.70;7.10;;;7.80;99.90;;;;;;5056984;28;20171;-80
2024/01/25 02:57:48;;;;;;;46.87;8.27;;;7.80;99.90;;;;;;5041956;28;20211;-80
2024/01/25 03:00:13;;;;;;;41.63;7.50;;;7.80;99.90;;;;;;5038770;28;20644;-80
2024/01/25 03:02:39;;;;;;;38.07;8.13;;;7.80;99.90;;;;;;5043236;28;20169;-79
2024/01/25 03:05:05;;;;;;;44.43;7.30;;;7.70;99.90;;;;;;5037569;28;20176;-80
2024/01/25 03:07:30;;;;;;;47.67;7.43;;;7.70;99.90;;;;;;5032873;28;20743;-79
2024/01/25 03:09:56;;;;;;;42.90;7.50;;;7.60;99.90;;;;;;5032193;28;20180;-79
2024/01/25 03:12:21;;;;;;;33.47;6.97;;;7.60;99.90;;;;;;5032916;28;20208;-80
2024/01/25 03:14:48;;;;;;;34.03;6.90;;;7.60;99.90;;;;;;5033958;28;20518;-79
2024/01/25 03:17:14;;;;;;;36.63;6.77;;;7.50;99.90;;;;;;5035001;28;20210;-80
2024/01/25 03:19:39;;;;;;;35.20;6.70;;;7.50;99.90;;;;;;5036402;28;20178;-79
2024/01/25 03:22:05;;;;;;;39.87;7.60;;;7.50;99.90;;;;;;5045400;28;20667;-80
2024/01/25 03:24:30;;;;;;;38.40;7.77;;;7.50;99.90;;;;;;5057164;28;20232;-79
2024/01/25 03:26:56;;;;;;;39.67;8.07;;;7.40;99.90;;;;;;5059551;28;20213;-80
2024/01/25 03:29:21;;;;;;;41.50;8.30;;;7.30;99.90;;;;;;5057658;28;20527;-80
2024/01/25 03:31:47;;;;;;;36.23;6.93;;;7.30;99.90;;;;;;5059379;28;20187;-80
2024/01/25 03:34:12;;;;;;;39.60;8.03;;;7.30;99.90;;;;;;5057443;28;20655;-80
2024/01/25 03:36:39;;;;;;;36.00;8.37;;;7.20;99.90;;;;;;5057838;28;20507;-79
2024/01/25 03:39:05;;;;;;;36.63;6.83;;;7.20;99.90;;;;;;5041429;28;20181;-81
2024/01/25 03:41:30;;;;;;;46.40;8.50;;;7.10;99.90;;;;;;5038001;28;20207;-79
2024/01/25 03:43:56;;;;;;;34.70;7.27;;;7.10;99.90;;;;;;5036311;28;20544;-79
2024/01/25 03:46:22;;;;;;;44.07;7.97;;;7.10;99.90;;;;;;5036029;28;20180;-80
2024/01/25 03:48:47;;;;;;;38.67;9.03;;;7.10;99.90;;;;;;5048550;28;20180;-80
2024/01/25 03:51:13;;;;;;;41.10;7.47;;;7.00;99.90;;;;;;5055140;28;20249;-79
2024/01/25 03:53:39;;;;;;;38.33;7.60;;;7.00;99.90;;;;;;5055163;28;20179;-79
2024/01/25 03:56:11;;;;;;;42.63;7.80;;;6.90;99.90;;;;;;5055647;28;20182;-78
2024/01/25 03:58:37;;;;;;;41.67;7.93;;;7.00;99.90;;;;;;5055607;28;20207;-79
2024/01/25 04:01:03;;;;;;;37.60;7.03;;;6.90;99.90;;;;;;5056928;28;20188;-79
2024/01/25 04:03:28;;;;;;;43.80;8.60;;;6.90;99.90;;;;;;5056924;28;20190;-80
2024/01/25 04:05:54;;;;;;;35.67;7.67;;;6.80;99.90;;;;;;5049405;28;20637;-79
2024/01/25 04:08:19;;;;;;;40.10;7.87;;;6.80;99.90;;;;;;5035358;28;20194;-80
2024/01/25 04:10:45;;;;;;;45.27;8.23;;;6.80;99.90;;;;;;5045530;28;20256;-80
2024/01/25 04:13:10;;;;;;;41.33;8.43;;;6.80;99.90;;;;;;5055411;28;20180;-80
2024/01/25 04:15:36;;;;;;;50.67;7.83;;;6.80;99.90;;;;;;5055329;28;20183;-80
2024/01/25 04:18:01;;;;;;;29.40;7.20;;;6.80;99.90;;;;;;5057168;28;20192;-80
2024/01/25 04:20:27;;;;;;;47.20;8.03;;;6.70;99.90;;;;;;5057270;28;20198;-80
2024/01/25 04:22:53;;;;;;;50.60;8.40;;;6.70;99.90;;;;;;5057171;28;20631;-80
2024/01/25 04:25:18;;;;;;;38.73;7.03;;;6.70;99.90;;;;;;5055059;28;20167;-79
2024/01/25 04:27:44;;;;;;;39.90;7.70;;;6.60;99.90;;;;;;5057320;28;20172;-80
2024/01/25 04:30:10;;;;;;;39.60;7.03;;;6.60;99.90;;;;;;5057428;28;20511;-79
2024/01/25 04:32:35;;;;;;;37.70;7.40;;;6.60;99.90;;;;;;5052719;28;20187;-78
2024/01/25 04:35:01;;;;;;;42.30;7.80;;;6.60;99.90;;;;;;5036721;28;20188;-80
2024/01/25 04:37:26;;;;;;;34.03;7.63;;;6.60;99.90;;;;;;5037401;28;20656;-79
2024/01/25 04:39:52;;;;;;;28.83;6.87;;;6.60;99.90;;;;;;5049081;28;20317;-80
2024/01/25 04:42:18;;;;;;;40.03;8.10;;;6.60;99.90;;;;;;5055617;28;20276;-79
2024/01/25 04:44:43;;;;;;;40.53;6.70;;;6.60;99.90;;;;;;5055508;28;20260;-80
2024/01/25 04:47:09;;;;;;;43.33;7.27;;;6.50;99.90;;;;;;5054710;28;20562;-80
2024/01/25 04:49:35;;;;;;;44.03;7.73;;;6.50;99.90;;;;;;5055693;28;20262;-80
2024/01/25 04:52:01;;;;;;;42.13;7.37;;;6.40;99.90;;;;;;5057485;28;20192;-79
2024/01/25 04:54:27;;;;;;;38.80;7.97;;;6.40;99.90;;;;;;5057201;28;20182;-80
2024/01/25 04:56:53;;;;;;;42.13;8.07;;;6.40;99.90;;;;;;5055274;28;20229;-80
2024/01/25 04:59:18;;;;;;;35.47;6.97;;;6.40;99.90;;;;;;5056554;28;20295;-80
2024/01/25 05:01:44;;;;;;;39.33;6.93;;;6.30;99.90;;;;;;5057232;28;20655;-79
2024/01/25 05:04:09;;;;;;;42.57;6.90;;;6.30;99.90;;;;;;5058638;28;20190;-80
2024/01/25 05:06:35;;;;;;;32.43;7.57;;;6.20;99.90;;;;;;5058514;28;20237;-80
2024/01/25 05:09:00;;;;;;;49.80;7.57;;;6.20;99.90;;;;;;5057356;28;20175;-80
2024/01/25 05:11:26;;;;;;;37.10;7.07;;;6.20;99.90;;;;;;5058964;28;20196;-80
2024/01/25 05:13:52;;;;;;;33.80;7.07;;;6.10;99.90;;;;;;5060282;28;20171;-80
2024/01/25 05:16:17;;;;;;;28.97;6.53;;;6.00;99.90;;;;;;5055909;28;20581;-80
2024/01/25 05:18:43;;;;;;;25.60;5.90;;;5.90;99.90;;;;;;5058141;28;20211;-80
2024/01/25 05:21:08;;;;;;;25.77;5.67;;;5.80;99.90;;;;;;5055721;28;20195;-80
2024/01/25 05:23:34;;;;;;;30.47;6.20;;;5.70;99.90;;;;;;5056106;28;20175;-78
2024/01/25 05:26:01;;;;;;;27.03;5.87;;;5.50;99.90;;;;;;5053024;28;20174;-80
2024/01/25 05:28:27;;;;;;;30.70;5.83;;;5.40;99.90;;;;;;5034709;28;20280;-79
2024/01/25 05:30:52;;;;;;;25.03;5.90;;;5.30;99.90;;;;;;5036201;28;20242;-80
2024/01/25 05:33:18;;;;;;;28.33;5.87;;;5.30;99.90;;;;;;5035998;28;20188;-80
2024/01/25 05:35:43;;;;;;;30.27;5.83;;;5.30;99.90;;;;;;5038299;28;20211;-81
2024/01/25 05:38:09;;;;;;;31.23;6.13;;;5.10;99.90;;;;;;5056621;28;20218;-80
2024/01/25 05:40:34;;;;;;;27.83;5.43;;;5.00;99.90;;;;;;5055874;28;20195;-81
2024/01/25 05:43:00;;;;;;;23.97;5.97;;;4.90;99.90;;;;;;5054453;28;20172;-80
2024/01/25 05:45:26;;;;;;;31.27;5.43;;;4.90;99.90;;;;;;5055386;28;20179;-80
2024/01/25 05:47:52;;;;;;;21.13;5.67;;;4.90;99.90;;;;;;5056180;28;20187;-80
2024/01/25 05:50:17;;;;;;;31.40;6.50;;;4.80;99.90;;;;;;5053018;28;20278;-79
2024/01/25 05:52:43;;;;;;;37.73;7.23;;;4.80;99.90;;;;;;5055290;28;20190;-80
2024/01/25 05:55:09;;;;;;;27.20;5.27;;;4.70;99.90;;;;;;5054599;28;20382;-80
2024/01/25 05:57:38;;;;;;;26.93;5.73;;;4.70;99.90;;;;;;5053597;28;20207;-81
2024/01/25 06:00:08;;;;;;;30.97;5.67;;;4.60;99.90;;;;;;5034084;28;20172;-79
2024/01/25 06:02:33;;;;;;;30.50;5.90;;;4.60;99.90;;;;;;5032823;28;20287;-79
2024/01/25 06:04:59;;;;;;;23.40;5.70;;;4.50;99.90;;;;;;5036471;28;20255;-79
2024/01/25 06:07:25;;;;;;;29.30;5.10;;;4.40;99.90;;;;;;5034725;28;20270;-80
2024/01/25 06:09:51;;;;;;;24.53;5.13;;;4.30;99.90;;;;;;5035003;28;20191;-80
2024/01/25 06:12:16;;;;;;;26.07;5.57;;;4.20;99.90;;;;;;5035424;28;20307;-80
2024/01/25 06:14:42;;;;;;;17.60;5.57;;;4.20;99.90;;;;;;5036588;28;20168;-79
2024/01/25 06:17:08;;;;;;;22.43;4.97;;;4.10;99.90;;;;;;5036365;28;20679;-80
2024/01/25 06:19:34;;;;;;;25.17;4.97;;;4.10;99.90;;;;;;5035545;28;20604;-80
2024/01/25 06:22:00;;;;;;;24.83;4.93;;;4.00;99.90;;;;;;5036456;28;20188;-80
2024/01/25 06:24:25;;;;;;;25.33;5.43;;;3.90;99.90;;;;;;5037234;28;20493;-79
2024/01/25 06:26:52;;;;;;;22.93;5.23;;;3.80;99.90;;;;;;5036962;28;20255;-80
2024/01/25 06:29:17;;;;;;;27.07;5.30;;;3.80;99.90;;;;;;5035254;28;20194;-79
2024/01/25 06:31:44;;;;;;;30.23;5.80;;;3.80;99.90;;;;;;5034955;28;20278;-80
2024/01/25 06:34:09;;;;;;;30.77;5.03;;;3.80;99.90;;;;;;5036755;28;20192;-80
2024/01/25 06:36:35;;;;;;;25.27;4.83;;;3.80;99.90;;;;;;5036100;28;20180;-80
2024/01/25 06:39:00;;;;;;;33.77;6.37;;;3.70;99.90;;;;;;5036161;28;20200;-80
2024/01/25 06:41:26;;;;;;;27.00;5.27;;;3.70;99.90;;;;;;5038167;28;20189;-80
2024/01/25 06:43:52;;;;;;;25.20;4.97;;;3.70;99.90;;;;;;5036374;28;20264;-80
2024/01/25 06:46:17;;;;;;;25.20;5.70;;;3.60;99.90;;;;;;5036894;28;20176;-79
2024/01/25 06:48:43;;;;;;;20.73;5.07;;;3.60;99.90;;;;;;5037457;28;20698;-79
2024/01/25 06:51:09;;;;;;;21.70;5.27;;;3.50;99.90;;;;;;5037470;28;20219;-79
2024/01/25 06:53:34;;;;;;;22.30;5.43;;;3.50;99.90;;;;;;5039011;28;20271;-80
2024/01/25 06:56:00;;;;;;;19.70;4.00;;;3.40;99.90;;;;;;5041632;28;20200;-80
2024/01/25 06:58:25;;;;;;;27.10;4.20;;;3.40;99.90;;;;;;5041781;28;20196;-80
2024/01/25 07:00:52;;;;;;;25.37;4.37;;;3.40;99.90;;;;;;5044568;28;20211;-79
2024/01/25 07:03:18;;;;;;;21.10;4.47;;;3.30;99.90;;;;;;5044925;28;20173;-80
2024/01/25 07:05:44;;;;;;;16.43;4.20;;;3.30;99.90;;;;;;5045750;28;20277;-80
2024/01/25 07:08:13;;;;;;;25.97;4.43;;;3.30;99.90;;;;;;5045083;28;20184;-80
2024/01/25 07:10:39;;;;;;;18.97;4.40;;;3.30;99.90;;;;;;5046013;28;20223;-79
2024/01/25 07:13:04;;;;;;;24.97;4.63;;;3.30;99.90;;;;;;5044086;28;20176;-80
2024/01/25 07:15:30;;;;;;;21.13;4.90;;;3.20;99.90;;;;;;5046015;28;20177;-79
2024/01/25 07:17:56;;;;;;;23.30;5.50;;;3.20;99.90;;;;;;5037107;28;20200;-79
2024/01/25 07:20:21;;;;;;;28.50;4.80;;;3.10;99.90;;;;;;5046664;28;20175;-80
2024/01/25 07:22:47;;;;;;;24.47;5.93;;;3.10;99.90;;;;;;5048847;28;20633;-80
2024/01/25 07:25:12;;;;;;;31.63;5.43;;;3.20;99.90;;;;;;5046180;28;20256;-79
2024/01/25 07:27:38;;;;;;;21.27;5.17;;;3.10;99.90;;;;;;5040727;28;20640;-79
2024/01/25 07:30:03;;;;;;;20.37;4.53;;;3.10;99.90;;;;;;5041531;28;20176;-79
2024/01/25 07:32:29;;;;;;;28.77;5.37;;;3.10;99.90;;;;;;5042876;28;20687;-79
2024/01/25 07:34:55;;;;;;;23.83;5.17;;;3.10;99.90;;;;;;5042701;28;20567;-79
2024/01/25 07:37:20;;;;;;;17.07;4.27;;;3.10;99.90;;;;;;5043146;28;20293;-80
2024/01/25 07:39:46;;;;;;;22.53;5.57;;;3.10;99.90;;;;;;5042850;28;20628;-80
2024/01/25 07:42:14;;;;;;;29.30;5.47;;;3.10;99.90;;;;;;5035545;28;20287;-80
2024/01/25 07:44:40;;;;;;;22.30;5.50;;;3.10;99.90;;;;;;5037266;28;20651;-80
2024/01/25 07:47:05;;;;;;;21.83;5.43;;;3.10;99.90;;;;;;5035161;28;20275;-80
2024/01/25 07:49:31;;;;;;;19.60;4.50;;;3.20;99.90;;;;;;5036584;28;20271;-80
2024/01/25 07:51:56;;;;;;;22.23;4.63;;;3.30;99.90;;;;;;5036331;28;20283;-79
2024/01/25 07:54:24;;;;;;;24.97;4.57;;;3.20;99.90;;;;;;5035536;28;20394;-79
2024/01/25 07:56:50;;;;;;;30.00;5.57;;;3.30;99.90;;;;;;5035220;28;20239;-80
2024/01/25 07:59:15;;;;;;;18.70;5.17;;;3.30;99.90;;;;;;5035484;28;20311;-79
2024/01/25 08:01:41;;;;;;;22.17;4.87;;;3.30;99.90;;;;;;5036485;28;20258;-80
2024/01/25 08:04:06;;;;;;;24.00;4.23;;;3.20;99.90;;;;;;5035101;28;20195;-79
2024/01/25 08:06:32;;;;;;;20.93;4.17;;;3.30;99.90;;;;;;5034845;28;20185;-79
2024/01/25 08:08:58;;;;;;;19.03;4.70;;;3.30;99.90;;;;;;5035448;28;20267;-80
2024/01/25 08:11:25;;;;;;;25.50;5.27;;;3.30;99.90;;;;;;5035004;28;20203;-79
2024/01/25 08:13:50;;;;;;;27.87;4.60;;;3.40;99.90;;;;;;5034807;28;20238;-80
2024/01/25 08:16:20;;;;;;;20.20;4.90;;;3.40;99.90;;;;;;5035095;28;20185;-80
2024/01/25 08:18:46;;;;;;;18.00;4.13;;;3.40;99.90;;;;;;5034987;28;20208;-79
2024/01/25 08:21:12;;;;;;;21.40;4.73;;;3.40;99.90;;;;;;5036752;28;20195;-79
2024/01/25 08:23:39;;;;;;;22.53;4.10;;;3.50;99.90;;;;;;5034568;28;20276;-79
2024/01/25 08:26:05;;;;;;;22.97;4.20;;;3.50;99.90;;;;;;5036347;28;20176;-79
2024/01/25 08:28:30;;;;;;;24.50;5.37;;;3.50;99.90;;;;;;5033966;28;20180;-79
2024/01/25 08:30:56;;;;;;;29.53;5.77;;;3.50;99.90;;;;;;5034582;28;20287;-79
2024/01/25 08:33:24;;;;;;;19.63;4.30;;;3.60;99.90;;;;;;5034655;28;20188;-79
2024/01/25 08:35:49;;;;;;;28.10;5.27;;;3.60;99.90;;;;;;5034161;28;20188;-83
2024/01/25 08:38:15;;;;;;;26.43;4.93;;;3.70;99.90;;;;;;5034457;28;20257;-83
2024/01/25 08:40:40;;;;;;;28.37;5.93;;;3.70;99.90;;;;;;5036155;28;20198;-80
2024/01/25 08:43:06;;;;;;;26.30;6.80;;;3.80;99.90;;;;;;5035780;28;20196;-80
2024/01/25 08:45:32;;;;;;;28.07;5.70;;;3.80;99.90;;;;;;5036469;28;20191;-80
2024/01/25 08:47:57;;;;;;;29.90;5.67;;;3.90;99.90;;;;;;5034417;28;20567;-80
2024/01/25 08:50:23;;;;;;;28.23;6.20;;;3.90;99.90;;;;;;5034451;28;20224;-80
2024/01/25 08:52:49;;;;;;;22.47;5.80;;;4.00;99.90;;;;;;5035708;28;20212;-79
2024/01/25 08:55:14;;;;;;;29.03;6.60;;;4.10;99.90;;;;;;5035323;28;20176;-80
2024/01/25 08:57:40;;;;;;;38.27;6.80;;;4.10;99.90;;;;;;5035971;28;20208;-80
2024/01/25 09:00:12;;;;;;;28.83;6.27;;;4.20;99.90;;;;;;5036631;28;20176;-80
2024/01/25 09:02:38;;;;;;;30.73;6.43;;;4.20;99.90;;;;;;5038897;28;20160;-80
2024/01/25 09:05:08;;;;;;;32.53;6.50;;;4.30;99.90;;;;;;5037081;28;20192;-80
2024/01/25 09:07:34;;;;;;;27.53;6.23;;;4.40;99.90;;;;;;5038918;28;20173;-80
2024/01/25 09:10:00;;;;;;;35.07;6.77;;;4.40;99.90;;;;;;5038617;28;20560;-80
2024/01/25 09:12:25;;;;;;;32.83;7.40;;;4.50;99.90;;;;;;5036996;28;20192;-82
2024/01/25 09:14:50;;;;;;;34.50;8.73;;;4.60;99.90;;;;;;5038728;28;20168;-80
2024/01/25 09:17:21;;;;;;;36.47;9.43;;;4.70;99.90;;;;;;5039731;28;20211;-79
2024/01/25 09:19:48;;;;;;;45.37;8.20;;;4.70;99.90;;;;;;5038260;28;20173;-80
2024/01/25 09:22:16;;;;;;;42.20;8.93;;;4.70;99.90;;;;;;5039100;28;20314;-80
2024/01/25 09:24:41;;;;;;;34.53;8.30;;;4.80;99.90;;;;;;5038189;28;20217;-80
2024/01/25 09:27:07;;;;;;;34.63;8.57;;;4.90;99.90;;;;;;5038869;28;20329;-80
2024/01/25 09:29:33;;;;;;;50.70;8.20;;;4.90;99.90;;;;;;5039631;28;20180;-80
2024/01/25 09:31:58;;;;;;;46.37;9.80;;;5.00;99.90;;;;;;5040060;28;20310;-80
2024/01/25 09:34:24;;;;;;;45.47;10.33;;;5.10;99.90;;;;;;5039692;28;20203;-80
2024/01/25 09:36:49;;;;;;;49.10;11.87;;;5.10;99.90;;;;;;5051777;28;20198;-80
2024/01/25 09:39:15;;;;;;;45.90;11.73;;;5.20;99.90;;;;;;5054186;28;20244;-80
2024/01/25 09:41:41;;;;;;;55.13;13.07;;;5.30;99.90;;;;;;5041445;28;20199;-80
2024/01/25 09:44:11;;;;;;;57.83;12.70;;;5.40;99.90;;;;;;5035114;28;20190;-80
2024/01/25 09:46:37;;;;;;;53.67;13.80;;;5.50;99.90;;;;;;5035396;28;20180;-80
2024/01/25 09:49:03;;;;;;;64.63;15.13;;;5.60;99.90;;;;;;5036802;28;20187;-79
2024/01/25 09:51:36;;;;;;;52.10;16.33;;;5.70;99.90;;;;;;5036770;28;20196;-80
2024/01/25 09:54:03;;;;;;;65.77;17.77;;;5.80;99.90;;;;;;5035345;28;20165;-80
2024/01/25 09:56:32;;;;;;;75.37;21.03;;;5.90;99.90;;;;;;5034744;28;20502;-80
2024/01/25 09:58:58;;;;;;;69.47;19.13;;;6.00;99.90;;;;;;5034617;28;20214;-80
2024/01/25 10:01:24;;;;;;;75.67;19.23;;;6.10;99.90;;;;;;5034827;28;20271;-80
2024/01/25 10:03:49;;;;;;;83.87;22.47;;;6.20;99.90;;;;;;5037074;28;20635;-79
2024/01/25 10:06:16;;;;;;;70.33;21.97;;;6.30;99.90;;;;;;5037047;28;20271;-80
2024/01/25 10:08:42;;;;;;;72.00;21.50;;;6.30;99.90;;;;;;5033698;28;20215;-79
2024/01/25 10:11:08;;;;;;;64.57;20.87;;;6.40;99.90;;;;;;5031572;28;20226;-80
2024/01/25 10:13:44;;;;;;;59.37;20.70;;;6.40;99.90;;;;;;5033618;28;20643;-79
2024/01/25 10:16:14;;;;;;;57.10;21.57;;;6.40;99.90;;;;;;5032444;28;20270;-80
2024/01/25 10:18:42;;;;;;;56.47;19.77;;;6.50;99.90;;;;;;5032596;28;20212;-80
2024/01/25 10:21:10;;;;;;;70.53;21.53;;;6.50;99.90;;;;;;5034265;28;20275;-80
2024/01/25 10:23:35;;;;;;;64.73;21.20;;;6.60;99.90;;;;;;5033066;28;20645;-80
2024/01/25 10:26:01;;;;;;;64.37;20.33;;;6.60;99.90;;;;;;5033313;28;20179;-80
2024/01/25 10:28:28;;;;;;;59.27;20.67;;;6.60;99.90;;;;;;5035061;28;20191;-79
2024/01/25 10:30:57;;;;;;;59.13;20.00;;;6.70;99.90;;;;;;5033365;28;20530;-80
2024/01/25 10:33:25;;;;;;;63.63;22.47;;;6.70;99.90;;;;;;5035430;28;20266;-81
2024/01/25 10:35:52;;;;;;;57.30;19.17;;;6.80;99.90;;;;;;5037232;28;20245;-81
2024/01/25 10:38:18;;;;;;;65.17;19.87;;;6.80;99.90;;;;;;5037936;28;20208;-81
2024/01/25 10:40:46;;;;;;;59.00;19.23;;;6.80;99.90;;;;;;5037715;28;20200;-81
2024/01/25 10:43:11;;;;;;;60.23;21.87;;;6.90;99.90;;;;;;5038812;28;20176;-81
2024/01/25 10:45:37;;;;;;;61.97;21.23;;;6.90;99.90;;;;;;5037081;28;20226;-81
2024/01/25 10:48:03;;;;;;;63.27;20.80;;;6.90;99.90;;;;;;5037767;28;20190;-80
2024/01/25 10:50:28;;;;;;;57.43;20.93;;;6.90;99.90;;;;;;5037830;28;20183;-81
2024/01/25 10:52:55;;;;;;;64.67;20.23;;;6.90;99.90;;;;;;5038758;28;20183;-84
2024/01/25 10:55:21;;;;;;;65.47;21.57;;;7.00;99.90;;;;;;5038763;28;20275;-84
2024/01/25 10:57:47;;;;;;;74.07;21.87;;;7.00;99.90;;;;;;5037841;28;20417;-81
2024/01/25 11:00:15;;;;;;;59.00;19.97;;;7.10;99.90;;;;;;5037861;28;20188;-82
2024/01/25 11:02:41;;;;;;;65.43;21.33;;;7.10;99.90;;;;;;5039539;28;20172;-83
2024/01/25 11:05:15;;;;;;;61.00;18.83;;;7.10;99.90;;;;;;5037915;28;20323;-82
2024/01/25 11:07:45;;;;;;;65.47;20.33;;;7.10;99.90;;;;;;5037688;28;20639;-83
2024/01/25 11:10:19;;;;;;;60.03;19.27;;;7.20;99.90;;;;;;5037945;28;20191;-83
2024/01/25 11:12:59;;;;;;;62.30;17.47;;;7.30;99.90;;;;;;5039321;28;20640;-82
2024/01/25 11:15:36;;;;;;;69.90;18.40;;;7.30;99.90;;;;;;5037767;28;20233;-83
2024/01/25 11:18:03;;;;;;;49.37;16.80;;;7.40;99.90;;;;;;5037463;28;20207;-83
2024/01/25 11:20:33;;;;;;;60.03;17.27;;;7.50;99.90;;;;;;5046208;23;20183;-82
2024/01/25 11:23:01;;;;;;;48.87;15.13;;;7.70;99.90;;;;;;5036834;28;20186;-82
2024/01/25 11:25:37;;;;;;;55.80;15.47;;;7.60;99.90;;;;;;5038497;28;20183;-82
2024/01/25 11:28:05;;;;;;;51.47;14.47;;;7.70;99.90;;;;;;5037080;28;20176;-83
2024/01/25 11:30:33;;;;;;;53.10;14.93;;;7.70;99.90;;;;;;5038186;28;20183;-82
2024/01/25 11:32:59;;;;;;;51.47;14.60;;;7.80;99.90;;;;;;5037628;28;20179;-83
2024/01/25 11:35:25;;;;;;;54.60;13.97;;;7.80;99.90;;;;;;5036160;28;20669;-82
2024/01/25 11:37:51;;;;;;;52.57;15.50;;;7.80;99.90;;;;;;5036767;28;20219;-83
2024/01/25 11:40:17;;;;;;;39.67;13.20;;;7.90;99.90;;;;;;5036792;28;20229;-83
2024/01/25 11:42:44;;;;;;;63.23;14.97;;;7.90;99.90;;;;;;5037018;28;20183;-83
2024/01/25 11:45:11;;;;;;;57.30;14.03;;;7.90;99.90;;;;;;5038784;28;20172;-83
2024/01/25 11:47:38;;;;;;;52.10;13.87;;;7.90;99.90;;;;;;5037535;28;20287;-83
2024/01/25 11:50:05;;;;;;;49.37;14.40;;;8.00;99.90;;;;;;5038056;28;20709;-83
2024/01/25 11:52:34;;;;;;;61.77;13.97;;;8.00;99.90;;;;;;5037942;28;20215;-83
2024/01/25 11:55:03;;;;;;;52.47;13.90;;;8.10;99.90;;;;;;5043450;28;20204;-83
2024/01/25 11:57:34;;;;;;;52.67;13.63;;;8.20;99.90;;;;;;5040552;28;20204;-83
2024/01/25 12:00:00;;;;;;;45.83;14.37;;;8.20;99.90;;;;;;5037291;28;20168;-83
2024/01/25 12:02:27;;;;;;;50.40;13.20;;;8.20;99.90;;;;;;5036934;28;20192;-82
2024/01/25 12:04:55;;;;;;;48.50;14.03;;;8.30;99.90;;;;;;5035618;28;20537;-82
2024/01/25 12:07:21;;;;;;;55.87;14.77;;;8.30;99.90;;;;;;5035248;28;20735;-83
2024/01/25 12:10:08;;;;;;;49.50;14.73;;;8.30;99.90;;;;;;5035835;28;20193;-84
2024/01/25 12:12:37;;;;;;;41.83;13.77;;;8.30;99.90;;;;;;5036023;28;20232;-84
2024/01/25 12:15:05;;;;;;;55.67;15.93;;;8.30;99.90;;;;;;5035056;28;20263;-84
2024/01/25 12:17:31;;;;;;;47.63;14.97;;;8.20;99.90;;;;;;5035516;28;20212;-84
2024/01/25 12:19:58;;;;;;;58.00;15.30;;;8.20;99.90;;;;;;5035424;28;20225;-83
2024/01/25 12:22:26;;;;;;;52.47;14.50;;;8.20;99.90;;;;;;5036540;28;20215;-84
2024/01/25 12:24:58;;;;;;;54.17;15.77;;;8.40;99.90;;;;;;5035311;28;20216;-83
2024/01/25 12:27:26;;;;;;;52.50;16.70;;;8.30;99.90;;;;;;5036769;28;20181;-83
2024/01/25 12:29:55;;;;;;;52.57;16.87;;;8.20;99.90;;;;;;5036697;28;20558;-82
2024/01/25 12:32:21;;;;;;;55.40;16.60;;;8.20;99.90;;;;;;5035809;28;20678;-82
2024/01/25 12:34:54;;;;;;;48.93;16.20;;;8.20;99.90;;;;;;5036134;28;20181;-82
2024/01/25 12:37:19;;;;;;;57.80;16.90;;;8.30;99.90;;;;;;5036991;28;20203;-82
2024/01/25 12:39:45;;;;;;;48.03;17.17;;;8.30;99.90;;;;;;5036965;28;20268;-82